N894MA KOKC-
Flight info
| Callsign | N894MA |
|---|---|
| Flight time | N/A |
| Altitude | |
| Route | SOUTH |
| Aircraft |
Departure
| Time | 2026-04-10 22:08 |
|---|---|
| Airport | OKC Will Rogers World Airport (KOKC) |
Arrival
| Time | N/A |
|---|---|
| Airport | - |
| Time | Latitude | Longitude | Altitude | Speed | Heading |
|---|---|---|---|---|---|
| 2026-04-10 21:58 | 35.40365 | -97.60287 | 1283 ft | 0 kts | 179° |
| 2026-04-10 22:02 | 35.40345 | -97.60287 | 1283 ft | 12 kts | 178° |
| 2026-04-10 22:02 | 35.40292 | -97.60313 | 1283 ft | 11 kts | 298° |
| 2026-04-10 22:03 | 35.40333 | -97.60402 | 1283 ft | 14 kts | 356° |
| 2026-04-10 22:03 | 35.40424 | -97.60405 | 1283 ft | 13 kts | 353° |
| 2026-04-10 22:03 | 35.40514 | -97.60405 | 1282 ft | 16 kts | 357° |
| 2026-04-10 22:03 | 35.40563 | -97.60429 | 1281 ft | 5 kts | 315° |
| 2026-04-10 22:04 | 35.40568 | -97.60437 | 1281 ft | 0 kts | 296° |
| 2026-04-10 22:06 | 35.40571 | -97.60446 | 1281 ft | 12 kts | 285° |
| 2026-04-10 22:06 | 35.40458 | -97.60568 | 1281 ft | 43 kts | 179° |
| 2026-04-10 22:07 | 35.40004 | -97.60573 | 1305 ft | 80 kts | 175° |
| 2026-04-10 22:07 | 35.39440 | -97.60577 | 1492 ft | 83 kts | 181° |
| 2026-04-10 22:07 | 35.38854 | -97.60612 | 1683 ft | 84 kts | 177° |
| 2026-04-10 22:08 | 35.37699 | -97.60465 | 2078 ft | 84 kts | 168° |
| 2026-04-10 22:08 | 35.37107 | -97.60376 | 2263 ft | 85 kts | 168° |
| 2026-04-10 22:08 | 35.36517 | -97.60284 | 2448 ft | 86 kts | 174° |
| 2026-04-10 22:08 | 35.35904 | -97.60236 | 2614 ft | 88 kts | 175° |
| 2026-04-10 22:09 | 35.35271 | -97.60220 | 2773 ft | 91 kts | 179° |
| 2026-04-10 22:09 | 35.34655 | -97.60218 | 2983 ft | 87 kts | 177° |
| 2026-04-10 22:09 | 35.34046 | -97.60203 | 3172 ft | 86 kts | 174° |
| 2026-04-10 22:09 | 35.33442 | -97.60216 | 3320 ft | 90 kts | 180° |
| 2026-04-10 22:10 | 35.32833 | -97.60234 | 3335 ft | 84 kts | 180° |
| 2026-04-10 22:10 | 35.32251 | -97.60228 | 3354 ft | 83 kts | 179° |
| 2026-04-10 22:10 | 35.31660 | -97.60239 | 3361 ft | 85 kts | 179° |
| 2026-04-10 22:10 | 35.31067 | -97.60226 | 3344 ft | 83 kts | 176° |
| 2026-04-10 22:11 | 35.30485 | -97.60210 | 3348 ft | 84 kts | 178° |
| 2026-04-10 22:11 | 35.29898 | -97.60193 | 3350 ft | 84 kts | 177° |
| 2026-04-10 22:11 | 35.29305 | -97.60152 | 3381 ft | 85 kts | 172° |
| 2026-04-10 22:11 | 35.28714 | -97.60080 | 3428 ft | 85 kts | 173° |
| 2026-04-10 22:12 | 35.28112 | -97.59952 | 3453 ft | 87 kts | 164° |
| 2026-04-10 22:12 | 35.27522 | -97.59824 | 3505 ft | 87 kts | 179° |
| 2026-04-10 22:12 | 35.26914 | -97.59820 | 3543 ft | 88 kts | 179° |
| 2026-04-10 22:12 | 35.26288 | -97.59829 | 3548 ft | 92 kts | 178° |
| 2026-04-10 22:13 | 35.25651 | -97.59800 | 3601 ft | 92 kts | 176° |
| 2026-04-10 22:13 | 35.24965 | -97.59766 | 3664 ft | 102 kts | 176° |
| 2026-04-10 22:13 | 35.24234 | -97.59733 | 3739 ft | 108 kts | 176° |
| 2026-04-10 22:13 | 35.23470 | -97.59712 | 3826 ft | 111 kts | 178° |
| 2026-04-10 22:14 | 35.22757 | -97.59853 | 4006 ft | 104 kts | 206° |
| 2026-04-10 22:14 | 35.22076 | -97.60177 | 4131 ft | 105 kts | 186° |
| 2026-04-10 22:14 | 35.21334 | -97.60049 | 4050 ft | 107 kts | 164° |
| 2026-04-10 22:14 | 35.20689 | -97.59894 | 4005 ft | 85 kts | 177° |
| 2026-04-10 22:15 | 35.20044 | -97.59732 | 3875 ft | 108 kts | 143° |
| 2026-04-10 22:15 | 35.19560 | -97.58899 | 3497 ft | 125 kts | 118° |
| 2026-04-10 22:15 | 35.19221 | -97.57955 | 3174 ft | 123 kts | 112° |
| 2026-04-10 22:15 | 35.18869 | -97.56918 | 2947 ft | 139 kts | 110° |
| 2026-04-10 22:16 | 35.18573 | -97.55904 | 2817 ft | 116 kts | 121° |
| 2026-04-10 22:16 | 35.18131 | -97.54992 | 2606 ft | 135 kts | 118° |
| 2026-04-10 22:16 | 35.17671 | -97.53934 | 2352 ft | 147 kts | 116° |
| 2026-04-10 22:16 | 35.17188 | -97.52846 | 2062 ft | 132 kts | 122° |
| 2026-04-10 22:17 | 35.16752 | -97.51979 | 1932 ft | 114 kts | 119° |
| 2026-04-10 22:17 | 35.16449 | -97.51041 | 1935 ft | 121 kts | 101° |
| 2026-04-10 22:17 | 35.16312 | -97.50111 | 1825 ft | 108 kts | 103° |
| 2026-04-10 22:17 | 35.16156 | -97.49232 | 1704 ft | 108 kts | 107° |
| 2026-04-10 22:18 | 35.15966 | -97.48377 | 1560 ft | 90 kts | 98° |
| 2026-04-10 22:18 | 35.15881 | -97.47677 | 1335 ft | 80 kts | 105° |
| 2026-04-10 22:18 | 35.15580 | -97.47155 | 1164 ft | 66 kts | 131° |
| 2026-04-10 22:18 | 35.15364 | -97.47014 | 1162 ft | 31 kts | 163° |
| 2026-04-10 22:22 | 43.11234 | -76.13021 | 413 ft | 0 kts | 254° |